sensor_id;sensor_type;location;lat;lon;timestamp;P1;durP1;ratioP1;P2;durP2;ratioP2
3133;SDS011;1577;49.912;10.924;2023-02-21T00:01:31;67.77;;;15.93;;
3133;SDS011;1577;49.912;10.924;2023-02-21T00:04:15;74.40;;;13.93;;
3133;SDS011;1577;49.912;10.924;2023-02-21T00:06:59;68.00;;;9.63;;
3133;SDS011;1577;49.912;10.924;2023-02-21T00:09:44;67.10;;;10.63;;
3133;SDS011;1577;49.912;10.924;2023-02-21T00:12:28;65.60;;;9.43;;
3133;SDS011;1577;49.912;10.924;2023-02-21T00:15:12;67.47;;;11.40;;
3133;SDS011;1577;49.912;10.924;2023-02-21T00:17:56;68.00;;;12.50;;
3133;SDS011;1577;49.912;10.924;2023-02-21T00:20:41;65.90;;;13.03;;
3133;SDS011;1577;49.912;10.924;2023-02-21T00:23:25;63.83;;;8.67;;
3133;SDS011;1577;49.912;10.924;2023-02-21T00:26:09;66.03;;;8.57;;
3133;SDS011;1577;49.912;10.924;2023-02-21T00:28:53;67.23;;;9.10;;
3133;SDS011;1577;49.912;10.924;2023-02-21T00:31:37;65.73;;;7.90;;
3133;SDS011;1577;49.912;10.924;2023-02-21T00:34:21;64.80;;;9.20;;
3133;SDS011;1577;49.912;10.924;2023-02-21T00:37:05;69.90;;;7.30;;
3133;SDS011;1577;49.912;10.924;2023-02-21T00:39:49;65.57;;;7.27;;
3133;SDS011;1577;49.912;10.924;2023-02-21T00:42:33;63.40;;;7.63;;
3133;SDS011;1577;49.912;10.924;2023-02-21T00:45:17;67.80;;;6.40;;
3133;SDS011;1577;49.912;10.924;2023-02-21T00:48:01;69.07;;;7.20;;
3133;SDS011;1577;49.912;10.924;2023-02-21T00:50:45;63.80;;;6.63;;
3133;SDS011;1577;49.912;10.924;2023-02-21T00:53:29;72.70;;;7.27;;
3133;SDS011;1577;49.912;10.924;2023-02-21T00:56:13;67.53;;;5.60;;
3133;SDS011;1577;49.912;10.924;2023-02-21T00:58:57;63.43;;;7.10;;
3133;SDS011;1577;49.912;10.924;2023-02-21T01:01:41;65.27;;;6.93;;
3133;SDS011;1577;49.912;10.924;2023-02-21T01:04:26;63.83;;;6.23;;
3133;SDS011;1577;49.912;10.924;2023-02-21T01:07:10;62.20;;;7.00;;
3133;SDS011;1577;49.912;10.924;2023-02-21T01:09:54;63.37;;;7.20;;
3133;SDS011;1577;49.912;10.924;2023-02-21T01:12:38;65.97;;;6.37;;
3133;SDS011;1577;49.912;10.924;2023-02-21T01:15:22;62.50;;;5.73;;
3133;SDS011;1577;49.912;10.924;2023-02-21T01:18:06;63.47;;;6.50;;
3133;SDS011;1577;49.912;10.924;2023-02-21T01:20:50;66.87;;;6.40;;
3133;SDS011;1577;49.912;10.924;2023-02-21T01:23:34;62.67;;;6.17;;
3133;SDS011;1577;49.912;10.924;2023-02-21T01:26:18;62.73;;;6.10;;
3133;SDS011;1577;49.912;10.924;2023-02-21T01:29:02;67.53;;;6.07;;
3133;SDS011;1577;49.912;10.924;2023-02-21T01:31:47;69.30;;;7.07;;
3133;SDS011;1577;49.912;10.924;2023-02-21T01:34:32;65.67;;;6.20;;
3133;SDS011;1577;49.912;10.924;2023-02-21T01:37:16;63.90;;;6.10;;
3133;SDS011;1577;49.912;10.924;2023-02-21T01:40:00;66.17;;;6.57;;
3133;SDS011;1577;49.912;10.924;2023-02-21T01:42:44;66.20;;;6.37;;
3133;SDS011;1577;49.912;10.924;2023-02-21T01:48:17;65.33;;;6.33;;
3133;SDS011;1577;49.912;10.924;2023-02-21T01:51:04;66.53;;;6.17;;
3133;SDS011;1577;49.912;10.924;2023-02-21T01:53:51;64.87;;;5.77;;
3133;SDS011;1577;49.912;10.924;2023-02-21T01:56:36;64.50;;;5.97;;
3133;SDS011;1577;49.912;10.924;2023-02-21T01:59:21;62.80;;;5.63;;
3133;SDS011;1577;49.912;10.924;2023-02-21T02:05:09;68.50;;;7.80;;
3133;SDS011;1577;49.912;10.924;2023-02-21T02:07:54;65.47;;;5.73;;
3133;SDS011;1577;49.912;10.924;2023-02-21T02:10:39;65.27;;;6.80;;
3133;SDS011;1577;49.912;10.924;2023-02-21T02:13:34;64.73;;;7.27;;
3133;SDS011;1577;49.912;10.924;2023-02-21T02:24:27;64.20;;;10.37;;
3133;SDS011;1577;49.912;10.924;2023-02-21T02:27:03;63.10;;;10.03;;
3133;SDS011;1577;49.912;10.924;2023-02-21T02:32:35;65.07;;;11.17;;
3133;SDS011;1577;49.912;10.924;2023-02-21T02:40:59;65.03;;;10.13;;
3133;SDS011;1577;49.912;10.924;2023-02-21T02:46:42;63.67;;;8.57;;
3133;SDS011;1577;49.912;10.924;2023-02-21T02:49:05;65.53;;;11.30;;
3133;SDS011;1577;49.912;10.924;2023-02-21T02:51:34;65.53;;;10.43;;
3133;SDS011;1577;49.912;10.924;2023-02-21T02:54:00;68.07;;;9.80;;
3133;SDS011;1577;49.912;10.924;2023-02-21T02:56:26;65.27;;;11.13;;
3133;SDS011;1577;49.912;10.924;2023-02-21T02:58:55;64.30;;;9.57;;
3133;SDS011;1577;49.912;10.924;2023-02-21T03:07:11;63.77;;;9.43;;
3133;SDS011;1577;49.912;10.924;2023-02-21T03:15:04;65.37;;;10.77;;
3133;SDS011;1577;49.912;10.924;2023-02-21T03:17:32;63.90;;;9.87;;
3133;SDS011;1577;49.912;10.924;2023-02-21T03:20:06;63.20;;;9.67;;
3133;SDS011;1577;49.912;10.924;2023-02-21T03:22:35;65.70;;;11.03;;
3133;SDS011;1577;49.912;10.924;2023-02-21T03:25:01;67.00;;;11.47;;
3133;SDS011;1577;49.912;10.924;2023-02-21T03:27:27;64.57;;;11.87;;
3133;SDS011;1577;49.912;10.924;2023-02-21T03:29:56;65.60;;;11.20;;
3133;SDS011;1577;49.912;10.924;2023-02-21T03:32:29;64.87;;;8.53;;
3133;SDS011;1577;49.912;10.924;2023-02-21T03:34:58;64.20;;;8.40;;
3133;SDS011;1577;49.912;10.924;2023-02-21T03:37:31;67.00;;;7.40;;
3133;SDS011;1577;49.912;10.924;2023-02-21T03:42:54;65.40;;;8.30;;
3133;SDS011;1577;49.912;10.924;2023-02-21T03:45:21;65.63;;;7.97;;
3133;SDS011;1577;49.912;10.924;2023-02-21T03:47:47;65.37;;;7.60;;
3133;SDS011;1577;49.912;10.924;2023-02-21T03:50:12;65.60;;;7.73;;
3133;SDS011;1577;49.912;10.924;2023-02-21T03:52:38;63.30;;;7.37;;
3133;SDS011;1577;49.912;10.924;2023-02-21T03:55:04;62.73;;;6.50;;
3133;SDS011;1577;49.912;10.924;2023-02-21T03:57:31;68.23;;;7.30;;
3133;SDS011;1577;49.912;10.924;2023-02-21T03:59:56;63.57;;;7.17;;
3133;SDS011;1577;49.912;10.924;2023-02-21T04:02:22;64.97;;;8.37;;
3133;SDS011;1577;49.912;10.924;2023-02-21T04:04:48;63.80;;;8.00;;
3133;SDS011;1577;49.912;10.924;2023-02-21T04:07:14;65.83;;;9.87;;
3133;SDS011;1577;49.912;10.924;2023-02-21T04:09:40;65.97;;;9.70;;
3133;SDS011;1577;49.912;10.924;2023-02-21T04:12:06;63.97;;;8.67;;
3133;SDS011;1577;49.912;10.924;2023-02-21T04:14:32;65.70;;;10.17;;
3133;SDS011;1577;49.912;10.924;2023-02-21T04:16:58;70.20;;;9.90;;
3133;SDS011;1577;49.912;10.924;2023-02-21T04:19:23;64.63;;;9.80;;
3133;SDS011;1577;49.912;10.924;2023-02-21T04:21:49;65.20;;;7.97;;
3133;SDS011;1577;49.912;10.924;2023-02-21T04:24:15;63.83;;;8.40;;
3133;SDS011;1577;49.912;10.924;2023-02-21T04:26:40;64.60;;;8.23;;
3133;SDS011;1577;49.912;10.924;2023-02-21T04:29:06;63.77;;;8.07;;
3133;SDS011;1577;49.912;10.924;2023-02-21T04:31:32;64.00;;;7.50;;
3133;SDS011;1577;49.912;10.924;2023-02-21T04:33:58;63.63;;;7.20;;
3133;SDS011;1577;49.912;10.924;2023-02-21T04:36:24;65.47;;;7.43;;
3133;SDS011;1577;49.912;10.924;2023-02-21T04:38:50;63.97;;;7.70;;
3133;SDS011;1577;49.912;10.924;2023-02-21T04:41:16;67.00;;;8.57;;
3133;SDS011;1577;49.912;10.924;2023-02-21T04:43:43;61.90;;;7.30;;
3133;SDS011;1577;49.912;10.924;2023-02-21T04:46:09;68.10;;;9.40;;
3133;SDS011;1577;49.912;10.924;2023-02-21T04:48:35;63.83;;;9.23;;
3133;SDS011;1577;49.912;10.924;2023-02-21T04:51:01;65.00;;;8.20;;
3133;SDS011;1577;49.912;10.924;2023-02-21T04:53:26;67.27;;;7.20;;
3133;SDS011;1577;49.912;10.924;2023-02-21T04:55:52;65.87;;;9.07;;
3133;SDS011;1577;49.912;10.924;2023-02-21T04:58:17;64.07;;;8.70;;
3133;SDS011;1577;49.912;10.924;2023-02-21T05:00:43;63.40;;;7.80;;
3133;SDS011;1577;49.912;10.924;2023-02-21T05:03:09;62.43;;;7.93;;
3133;SDS011;1577;49.912;10.924;2023-02-21T05:05:34;61.37;;;6.63;;
3133;SDS011;1577;49.912;10.924;2023-02-21T05:08:00;69.60;;;6.37;;
3133;SDS011;1577;49.912;10.924;2023-02-21T05:10:25;62.43;;;6.73;;
3133;SDS011;1577;49.912;10.924;2023-02-21T05:12:51;64.80;;;6.27;;
3133;SDS011;1577;49.912;10.924;2023-02-21T05:15:16;66.30;;;6.83;;
3133;SDS011;1577;49.912;10.924;2023-02-21T05:17:42;66.20;;;6.07;;
3133;SDS011;1577;49.912;10.924;2023-02-21T05:20:10;66.03;;;6.00;;
3133;SDS011;1577;49.912;10.924;2023-02-21T05:22:39;62.27;;;6.13;;
3133;SDS011;1577;49.912;10.924;2023-02-21T05:25:15;67.67;;;8.67;;
3133;SDS011;1577;49.912;10.924;2023-02-21T05:27:42;66.43;;;8.07;;
3133;SDS011;1577;49.912;10.924;2023-02-21T05:30:08;66.37;;;8.63;;
3133;SDS011;1577;49.912;10.924;2023-02-21T05:32:34;63.80;;;7.13;;
3133;SDS011;1577;49.912;10.924;2023-02-21T05:35:00;66.87;;;8.93;;
3133;SDS011;1577;49.912;10.924;2023-02-21T05:37:25;69.40;;;10.80;;
3133;SDS011;1577;49.912;10.924;2023-02-21T05:39:51;68.93;;;11.87;;
3133;SDS011;1577;49.912;10.924;2023-02-21T05:42:17;69.40;;;11.90;;
3133;SDS011;1577;49.912;10.924;2023-02-21T05:44:43;68.80;;;13.60;;
3133;SDS011;1577;49.912;10.924;2023-02-21T05:47:10;66.00;;;13.93;;
3133;SDS011;1577;49.912;10.924;2023-02-21T05:49:36;70.50;;;13.27;;
3133;SDS011;1577;49.912;10.924;2023-02-21T05:52:02;66.40;;;9.67;;
3133;SDS011;1577;49.912;10.924;2023-02-21T05:54:29;66.20;;;10.20;;
3133;SDS011;1577;49.912;10.924;2023-02-21T05:56:54;68.57;;;11.60;;
3133;SDS011;1577;49.912;10.924;2023-02-21T05:59:20;72.37;;;10.77;;
3133;SDS011;1577;49.912;10.924;2023-02-21T06:01:46;69.83;;;10.33;;
3133;SDS011;1577;49.912;10.924;2023-02-21T06:04:13;66.97;;;9.73;;
3133;SDS011;1577;49.912;10.924;2023-02-21T06:06:38;66.77;;;8.60;;
3133;SDS011;1577;49.912;10.924;2023-02-21T06:09:04;69.33;;;9.47;;
3133;SDS011;1577;49.912;10.924;2023-02-21T06:11:31;74.93;;;10.00;;
3133;SDS011;1577;49.912;10.924;2023-02-21T06:13:59;72.20;;;8.90;;
3133;SDS011;1577;49.912;10.924;2023-02-21T06:16:31;68.50;;;7.80;;
3133;SDS011;1577;49.912;10.924;2023-02-21T06:19:01;65.70;;;7.30;;
3133;SDS011;1577;49.912;10.924;2023-02-21T06:21:27;71.77;;;8.37;;
3133;SDS011;1577;49.912;10.924;2023-02-21T06:23:53;69.23;;;8.27;;
3133;SDS011;1577;49.912;10.924;2023-02-21T06:26:18;71.17;;;8.50;;
3133;SDS011;1577;49.912;10.924;2023-02-21T06:28:45;70.53;;;7.90;;
3133;SDS011;1577;49.912;10.924;2023-02-21T06:31:11;67.37;;;7.63;;
3133;SDS011;1577;49.912;10.924;2023-02-21T06:33:37;70.90;;;7.80;;
3133;SDS011;1577;49.912;10.924;2023-02-21T06:36:07;69.73;;;10.40;;
3133;SDS011;1577;49.912;10.924;2023-02-21T06:38:37;69.90;;;10.00;;
3133;SDS011;1577;49.912;10.924;2023-02-21T06:41:06;69.83;;;8.50;;
3133;SDS011;1577;49.912;10.924;2023-02-21T06:43:33;69.80;;;8.80;;
3133;SDS011;1577;49.912;10.924;2023-02-21T06:46:02;72.90;;;9.10;;
3133;SDS011;1577;49.912;10.924;2023-02-21T06:48:28;79.70;;;9.83;;
3133;SDS011;1577;49.912;10.924;2023-02-21T06:50:54;68.67;;;9.30;;
3133;SDS011;1577;49.912;10.924;2023-02-21T06:53:20;69.33;;;10.20;;
3133;SDS011;1577;49.912;10.924;2023-02-21T06:55:45;72.80;;;12.40;;
3133;SDS011;1577;49.912;10.924;2023-02-21T06:58:11;70.40;;;11.67;;
3133;SDS011;1577;49.912;10.924;2023-02-21T07:00:36;71.07;;;12.03;;
3133;SDS011;1577;49.912;10.924;2023-02-21T07:03:02;72.87;;;15.37;;
3133;SDS011;1577;49.912;10.924;2023-02-21T07:05:28;72.57;;;16.07;;
3133;SDS011;1577;49.912;10.924;2023-02-21T07:07:58;71.47;;;17.57;;
3133;SDS011;1577;49.912;10.924;2023-02-21T07:10:24;77.10;;;20.93;;
3133;SDS011;1577;49.912;10.924;2023-02-21T07:12:50;73.43;;;20.00;;
3133;SDS011;1577;49.912;10.924;2023-02-21T07:15:15;75.30;;;20.80;;
3133;SDS011;1577;49.912;10.924;2023-02-21T07:17:41;74.40;;;22.20;;
3133;SDS011;1577;49.912;10.924;2023-02-21T07:20:07;83.23;;;23.03;;
3133;SDS011;1577;49.912;10.924;2023-02-21T07:22:33;73.90;;;20.67;;
3133;SDS011;1577;49.912;10.924;2023-02-21T07:24:58;77.07;;;18.30;;
3133;SDS011;1577;49.912;10.924;2023-02-21T07:27:24;73.87;;;19.00;;
3133;SDS011;1577;49.912;10.924;2023-02-21T07:29:49;71.37;;;14.53;;
3133;SDS011;1577;49.912;10.924;2023-02-21T07:32:15;73.90;;;18.67;;
3133;SDS011;1577;49.912;10.924;2023-02-21T07:34:41;74.43;;;12.30;;
3133;SDS011;1577;49.912;10.924;2023-02-21T07:37:08;68.43;;;9.93;;
3133;SDS011;1577;49.912;10.924;2023-02-21T07:39:34;66.13;;;7.93;;
3133;SDS011;1577;49.912;10.924;2023-02-21T07:42:00;69.03;;;7.80;;
3133;SDS011;1577;49.912;10.924;2023-02-21T07:44:26;65.03;;;9.50;;
3133;SDS011;1577;49.912;10.924;2023-02-21T07:46:51;67.10;;;11.17;;
3133;SDS011;1577;49.912;10.924;2023-02-21T07:49:19;65.10;;;9.83;;
3133;SDS011;1577;49.912;10.924;2023-02-21T07:51:44;64.47;;;8.87;;
3133;SDS011;1577;49.912;10.924;2023-02-21T07:54:10;67.00;;;9.10;;
3133;SDS011;1577;49.912;10.924;2023-02-21T07:56:35;65.30;;;10.77;;
3133;SDS011;1577;49.912;10.924;2023-02-21T07:59:09;65.03;;;13.40;;
3133;SDS011;1577;49.912;10.924;2023-02-21T08:01:35;67.73;;;15.70;;
3133;SDS011;1577;49.912;10.924;2023-02-21T08:04:00;69.67;;;13.60;;
3133;SDS011;1577;49.912;10.924;2023-02-21T08:06:26;64.73;;;12.50;;
3133;SDS011;1577;49.912;10.924;2023-02-21T08:08:52;68.60;;;13.10;;
3133;SDS011;1577;49.912;10.924;2023-02-21T08:11:17;67.33;;;12.23;;
3133;SDS011;1577;49.912;10.924;2023-02-21T08:13:43;65.87;;;14.67;;
3133;SDS011;1577;49.912;10.924;2023-02-21T08:16:08;67.80;;;21.43;;
3133;SDS011;1577;49.912;10.924;2023-02-21T08:18:34;69.60;;;24.73;;
3133;SDS011;1577;49.912;10.924;2023-02-21T08:21:00;70.90;;;26.27;;
3133;SDS011;1577;49.912;10.924;2023-02-21T08:23:25;70.10;;;29.57;;
3133;SDS011;1577;49.912;10.924;2023-02-21T08:25:51;69.73;;;25.33;;
3133;SDS011;1577;49.912;10.924;2023-02-21T08:28:17;68.80;;;27.40;;
3133;SDS011;1577;49.912;10.924;2023-02-21T08:30:43;72.27;;;29.13;;
3133;SDS011;1577;49.912;10.924;2023-02-21T08:33:08;68.97;;;26.63;;
3133;SDS011;1577;49.912;10.924;2023-02-21T08:35:34;79.93;;;49.10;;
3133;SDS011;1577;49.912;10.924;2023-02-21T08:37:59;72.23;;;36.40;;
3133;SDS011;1577;49.912;10.924;2023-02-21T08:40:29;71.90;;;36.33;;
3133;SDS011;1577;49.912;10.924;2023-02-21T08:42:55;71.47;;;37.37;;
3133;SDS011;1577;49.912;10.924;2023-02-21T08:45:22;69.13;;;33.07;;
3133;SDS011;1577;49.912;10.924;2023-02-21T08:47:49;70.70;;;41.10;;
3133;SDS011;1577;49.912;10.924;2023-02-21T08:50:16;71.53;;;39.63;;
3133;SDS011;1577;49.912;10.924;2023-02-21T08:52:44;70.23;;;38.53;;
3133;SDS011;1577;49.912;10.924;2023-02-21T08:55:11;74.93;;;55.57;;
3133;SDS011;1577;49.912;10.924;2023-02-21T08:57:37;77.13;;;59.57;;
3133;SDS011;1577;49.912;10.924;2023-02-21T09:00:03;88.93;;;79.10;;
3133;SDS011;1577;49.912;10.924;2023-02-21T09:02:30;78.53;;;64.70;;
3133;SDS011;1577;49.912;10.924;2023-02-21T09:04:56;77.03;;;66.97;;
3133;SDS011;1577;49.912;10.924;2023-02-21T09:07:23;78.13;;;59.90;;
3133;SDS011;1577;49.912;10.924;2023-02-21T09:09:49;79.03;;;63.70;;
3133;SDS011;1577;49.912;10.924;2023-02-21T09:12:14;76.00;;;57.67;;
3133;SDS011;1577;49.912;10.924;2023-02-21T09:14:41;72.23;;;57.47;;
3133;SDS011;1577;49.912;10.924;2023-02-21T09:17:08;71.30;;;53.67;;
3133;SDS011;1577;49.912;10.924;2023-02-21T09:19:36;65.80;;;43.67;;
3133;SDS011;1577;49.912;10.924;2023-02-21T09:22:02;72.27;;;54.20;;
3133;SDS011;1577;49.912;10.924;2023-02-21T09:24:28;68.90;;;51.67;;
3133;SDS011;1577;49.912;10.924;2023-02-21T09:26:54;71.67;;;47.73;;
3133;SDS011;1577;49.912;10.924;2023-02-21T09:29:27;68.10;;;40.60;;
3133;SDS011;1577;49.912;10.924;2023-02-21T09:31:53;72.13;;;57.70;;
3133;SDS011;1577;49.912;10.924;2023-02-21T09:34:19;67.63;;;58.13;;
3133;SDS011;1577;49.912;10.924;2023-02-21T09:36:46;66.20;;;53.00;;
3133;SDS011;1577;49.912;10.924;2023-02-21T09:39:12;62.17;;;49.00;;
3133;SDS011;1577;49.912;10.924;2023-02-21T09:41:39;62.57;;;56.10;;
3133;SDS011;1577;49.912;10.924;2023-02-21T09:44:16;53.97;;;38.90;;
3133;SDS011;1577;49.912;10.924;2023-02-21T09:46:45;47.63;;;36.33;;
3133;SDS011;1577;49.912;10.924;2023-02-21T09:49:27;44.07;;;31.73;;
3133;SDS011;1577;49.912;10.924;2023-02-21T09:51:56;45.00;;;35.13;;
3133;SDS011;1577;49.912;10.924;2023-02-21T09:54:25;47.43;;;36.47;;
3133;SDS011;1577;49.912;10.924;2023-02-21T09:57:04;45.10;;;33.50;;
3133;SDS011;1577;49.912;10.924;2023-02-21T09:59:30;49.73;;;33.37;;
3133;SDS011;1577;49.912;10.924;2023-02-21T10:02:02;45.10;;;32.90;;
3133;SDS011;1577;49.912;10.924;2023-02-21T10:07:32;44.97;;;39.27;;
3133;SDS011;1577;49.912;10.924;2023-02-21T10:12:51;42.90;;;36.87;;
3133;SDS011;1577;49.912;10.924;2023-02-21T10:15:43;44.40;;;30.37;;
3133;SDS011;1577;49.912;10.924;2023-02-21T10:21:30;38.30;;;22.20;;
3133;SDS011;1577;49.912;10.924;2023-02-21T10:24:02;42.07;;;30.47;;
3133;SDS011;1577;49.912;10.924;2023-02-21T10:26:36;42.73;;;28.80;;
3133;SDS011;1577;49.912;10.924;2023-02-21T10:29:10;39.13;;;29.73;;
3133;SDS011;1577;49.912;10.924;2023-02-21T10:31:51;40.93;;;26.70;;
3133;SDS011;1577;49.912;10.924;2023-02-21T10:34:26;47.33;;;38.17;;
3133;SDS011;1577;49.912;10.924;2023-02-21T10:36:54;44.67;;;37.77;;
3133;SDS011;1577;49.912;10.924;2023-02-21T10:39:24;43.40;;;34.70;;
3133;SDS011;1577;49.912;10.924;2023-02-21T10:42:03;39.87;;;29.00;;
3133;SDS011;1577;49.912;10.924;2023-02-21T10:44:29;38.60;;;29.80;;
3133;SDS011;1577;49.912;10.924;2023-02-21T10:47:01;40.87;;;32.73;;
3133;SDS011;1577;49.912;10.924;2023-02-21T10:52:46;40.83;;;29.83;;
3133;SDS011;1577;49.912;10.924;2023-02-21T10:55:20;43.03;;;32.97;;
3133;SDS011;1577;49.912;10.924;2023-02-21T10:57:52;41.70;;;32.10;;
3133;SDS011;1577;49.912;10.924;2023-02-21T11:00:32;44.10;;;29.27;;
3133;SDS011;1577;49.912;10.924;2023-02-21T11:03:12;40.10;;;30.97;;
3133;SDS011;1577;49.912;10.924;2023-02-21T11:05:50;41.47;;;30.83;;
3133;SDS011;1577;49.912;10.924;2023-02-21T11:08:37;39.00;;;29.47;;
3133;SDS011;1577;49.912;10.924;2023-02-21T11:11:05;34.50;;;24.97;;
3133;SDS011;1577;49.912;10.924;2023-02-21T11:13:31;36.67;;;28.70;;
3133;SDS011;1577;49.912;10.924;2023-02-21T11:18:37;41.40;;;31.77;;
3133;SDS011;1577;49.912;10.924;2023-02-21T11:21:11;41.03;;;32.77;;
3133;SDS011;1577;49.912;10.924;2023-02-21T11:23:52;38.20;;;25.70;;
3133;SDS011;1577;49.912;10.924;2023-02-21T11:26:27;38.33;;;26.90;;
3133;SDS011;1577;49.912;10.924;2023-02-21T11:28:54;42.07;;;31.37;;
3133;SDS011;1577;49.912;10.924;2023-02-21T11:31:33;38.90;;;27.27;;
3133;SDS011;1577;49.912;10.924;2023-02-21T11:34:00;37.27;;;28.33;;
3133;SDS011;1577;49.912;10.924;2023-02-21T11:36:29;39.33;;;28.70;;
3133;SDS011;1577;49.912;10.924;2023-02-21T11:41:49;39.13;;;28.57;;
3133;SDS011;1577;49.912;10.924;2023-02-21T11:44:29;40.57;;;31.90;;
3133;SDS011;1577;49.912;10.924;2023-02-21T11:49:47;41.07;;;26.33;;
3133;SDS011;1577;49.912;10.924;2023-02-21T11:55:02;42.17;;;35.57;;
3133;SDS011;1577;49.912;10.924;2023-02-21T11:57:44;45.27;;;34.03;;
3133;SDS011;1577;49.912;10.924;2023-02-21T12:05:58;38.90;;;30.27;;
3133;SDS011;1577;49.912;10.924;2023-02-21T12:17:00;38.27;;;32.30;;
3133;SDS011;1577;49.912;10.924;2023-02-21T12:35:46;17.67;;;8.20;;
3133;SDS011;1577;49.912;10.924;2023-02-21T12:40:54;14.23;;;5.57;;
3133;SDS011;1577;49.912;10.924;2023-02-21T12:46:18;14.47;;;5.10;;
3133;SDS011;1577;49.912;10.924;2023-02-21T12:51:47;16.27;;;4.63;;
3133;SDS011;1577;49.912;10.924;2023-02-21T12:54:39;13.80;;;4.77;;
3133;SDS011;1577;49.912;10.924;2023-02-21T12:57:22;14.03;;;5.10;;
3133;SDS011;1577;49.912;10.924;2023-02-21T13:00:03;15.80;;;5.53;;
3133;SDS011;1577;49.912;10.924;2023-02-21T13:05:43;16.90;;;6.83;;
3133;SDS011;1577;49.912;10.924;2023-02-21T13:08:20;14.17;;;5.40;;
3133;SDS011;1577;49.912;10.924;2023-02-21T13:13:24;13.77;;;4.70;;
3133;SDS011;1577;49.912;10.924;2023-02-21T13:15:53;13.43;;;4.83;;
3133;SDS011;1577;49.912;10.924;2023-02-21T13:24:12;16.70;;;4.63;;
3133;SDS011;1577;49.912;10.924;2023-02-21T13:29:40;17.60;;;5.80;;
3133;SDS011;1577;49.912;10.924;2023-02-21T13:32:14;13.90;;;4.00;;
3133;SDS011;1577;49.912;10.924;2023-02-21T13:34:43;18.13;;;4.70;;
3133;SDS011;1577;49.912;10.924;2023-02-21T13:37:19;14.90;;;5.23;;
3133;SDS011;1577;49.912;10.924;2023-02-21T13:40:06;15.13;;;5.70;;
3133;SDS011;1577;49.912;10.924;2023-02-21T13:43:12;13.17;;;4.70;;
3133;SDS011;1577;49.912;10.924;2023-02-21T13:45:50;17.13;;;4.93;;
3133;SDS011;1577;49.912;10.924;2023-02-21T13:48:22;15.70;;;6.47;;
3133;SDS011;1577;49.912;10.924;2023-02-21T13:50:53;15.10;;;5.33;;
3133;SDS011;1577;49.912;10.924;2023-02-21T13:53:22;17.07;;;7.07;;
3133;SDS011;1577;49.912;10.924;2023-02-21T14:01:18;16.40;;;7.03;;
3133;SDS011;1577;49.912;10.924;2023-02-21T14:07:07;21.10;;;11.60;;
3133;SDS011;1577;49.912;10.924;2023-02-21T14:09:34;23.30;;;10.67;;
3133;SDS011;1577;49.912;10.924;2023-02-21T14:12:03;19.70;;;7.17;;
3133;SDS011;1577;49.912;10.924;2023-02-21T14:14:38;22.50;;;8.87;;
3133;SDS011;1577;49.912;10.924;2023-02-21T14:17:05;22.00;;;7.20;;
3133;SDS011;1577;49.912;10.924;2023-02-21T14:22:14;24.50;;;15.03;;
3133;SDS011;1577;49.912;10.924;2023-02-21T14:24:42;25.73;;;22.53;;
3133;SDS011;1577;49.912;10.924;2023-02-21T14:57:13;18.70;;;9.20;;
3133;SDS011;1577;49.912;10.924;2023-02-21T15:03:01;19.37;;;10.73;;
3133;SDS011;1577;49.912;10.924;2023-02-21T15:05:34;18.30;;;11.37;;
3133;SDS011;1577;49.912;10.924;2023-02-21T15:10:42;20.10;;;11.17;;
3133;SDS011;1577;49.912;10.924;2023-02-21T15:13:23;23.70;;;10.93;;
3133;SDS011;1577;49.912;10.924;2023-02-21T15:15:55;21.57;;;11.27;;
3133;SDS011;1577;49.912;10.924;2023-02-21T15:18:25;21.47;;;6.60;;
3133;SDS011;1577;49.912;10.924;2023-02-21T15:21:04;20.33;;;7.23;;
3133;SDS011;1577;49.912;10.924;2023-02-21T15:23:36;23.27;;;8.37;;
3133;SDS011;1577;49.912;10.924;2023-02-21T15:26:22;26.03;;;13.33;;
3133;SDS011;1577;49.912;10.924;2023-02-21T15:29:10;28.50;;;14.90;;
3133;SDS011;1577;49.912;10.924;2023-02-21T15:31:47;26.10;;;14.30;;
3133;SDS011;1577;49.912;10.924;2023-02-21T15:36:43;28.00;;;14.33;;
3133;SDS011;1577;49.912;10.924;2023-02-21T15:39:32;27.10;;;13.90;;
3133;SDS011;1577;49.912;10.924;2023-02-21T15:42:00;28.70;;;12.67;;
3133;SDS011;1577;49.912;10.924;2023-02-21T15:44:30;28.73;;;13.27;;
3133;SDS011;1577;49.912;10.924;2023-02-21T15:47:06;28.20;;;13.70;;
3133;SDS011;1577;49.912;10.924;2023-02-21T15:52:01;30.20;;;16.10;;
3133;SDS011;1577;49.912;10.924;2023-02-21T15:54:29;31.80;;;15.73;;
3133;SDS011;1577;49.912;10.924;2023-02-21T15:59:35;32.80;;;17.20;;
3133;SDS011;1577;49.912;10.924;2023-02-21T16:04:41;33.17;;;16.03;;
3133;SDS011;1577;49.912;10.924;2023-02-21T16:07:16;30.30;;;16.97;;
3133;SDS011;1577;49.912;10.924;2023-02-21T16:09:49;33.33;;;16.37;;
3133;SDS011;1577;49.912;10.924;2023-02-21T16:12:43;32.97;;;12.83;;
3133;SDS011;1577;49.912;10.924;2023-02-21T16:17:51;36.30;;;20.37;;
3133;SDS011;1577;49.912;10.924;2023-02-21T16:20:19;36.90;;;21.20;;
3133;SDS011;1577;49.912;10.924;2023-02-21T16:22:50;39.40;;;23.47;;
3133;SDS011;1577;49.912;10.924;2023-02-21T16:25:53;36.60;;;18.43;;
3133;SDS011;1577;49.912;10.924;2023-02-21T16:28:24;39.67;;;14.77;;
3133;SDS011;1577;49.912;10.924;2023-02-21T16:30:51;38.67;;;17.43;;
3133;SDS011;1577;49.912;10.924;2023-02-21T16:33:19;52.07;;;34.43;;
3133;SDS011;1577;49.912;10.924;2023-02-21T16:35:45;54.47;;;39.30;;
3133;SDS011;1577;49.912;10.924;2023-02-21T16:38:13;53.20;;;31.50;;
3133;SDS011;1577;49.912;10.924;2023-02-21T16:40:40;55.60;;;31.57;;
3133;SDS011;1577;49.912;10.924;2023-02-21T16:43:06;56.20;;;33.33;;
3133;SDS011;1577;49.912;10.924;2023-02-21T16:45:32;54.10;;;35.23;;
3133;SDS011;1577;49.912;10.924;2023-02-21T16:48:02;50.87;;;35.87;;
3133;SDS011;1577;49.912;10.924;2023-02-21T16:50:33;48.27;;;24.27;;
3133;SDS011;1577;49.912;10.924;2023-02-21T16:53:04;50.27;;;28.60;;
3133;SDS011;1577;49.912;10.924;2023-02-21T16:55:30;48.90;;;24.27;;
3133;SDS011;1577;49.912;10.924;2023-02-21T16:58:03;54.63;;;28.40;;
3133;SDS011;1577;49.912;10.924;2023-02-21T17:00:31;66.67;;;51.27;;
3133;SDS011;1577;49.912;10.924;2023-02-21T17:02:57;58.80;;;37.03;;
3133;SDS011;1577;49.912;10.924;2023-02-21T17:05:23;57.87;;;39.77;;
3133;SDS011;1577;49.912;10.924;2023-02-21T17:07:50;60.70;;;37.40;;
3133;SDS011;1577;49.912;10.924;2023-02-21T17:10:17;58.63;;;37.20;;
3133;SDS011;1577;49.912;10.924;2023-02-21T17:12:44;59.07;;;32.70;;
3133;SDS011;1577;49.912;10.924;2023-02-21T17:15:09;54.57;;;30.00;;
3133;SDS011;1577;49.912;10.924;2023-02-21T17:17:36;60.47;;;40.33;;
3133;SDS011;1577;49.912;10.924;2023-02-21T17:20:02;60.70;;;39.70;;
3133;SDS011;1577;49.912;10.924;2023-02-21T17:22:29;62.20;;;42.73;;
3133;SDS011;1577;49.912;10.924;2023-02-21T17:24:55;65.47;;;29.73;;
3133;SDS011;1577;49.912;10.924;2023-02-21T17:27:21;59.53;;;31.27;;
3133;SDS011;1577;49.912;10.924;2023-02-21T17:29:47;55.47;;;26.80;;
3133;SDS011;1577;49.912;10.924;2023-02-21T17:32:13;58.77;;;30.37;;
3133;SDS011;1577;49.912;10.924;2023-02-21T17:34:39;57.90;;;25.93;;
3133;SDS011;1577;49.912;10.924;2023-02-21T17:37:06;56.27;;;24.17;;
3133;SDS011;1577;49.912;10.924;2023-02-21T17:39:33;63.70;;;35.93;;
3133;SDS011;1577;49.912;10.924;2023-02-21T17:42:00;61.07;;;28.27;;
3133;SDS011;1577;49.912;10.924;2023-02-21T17:44:26;62.70;;;33.73;;
3133;SDS011;1577;49.912;10.924;2023-02-21T17:46:53;61.50;;;32.23;;
3133;SDS011;1577;49.912;10.924;2023-02-21T17:49:21;61.17;;;30.00;;
3133;SDS011;1577;49.912;10.924;2023-02-21T17:51:50;70.07;;;37.90;;
3133;SDS011;1577;49.912;10.924;2023-02-21T17:54:18;81.03;;;43.20;;
3133;SDS011;1577;49.912;10.924;2023-02-21T17:56:46;82.70;;;44.37;;
3133;SDS011;1577;49.912;10.924;2023-02-21T17:59:12;79.53;;;42.63;;
3133;SDS011;1577;49.912;10.924;2023-02-21T18:01:38;82.70;;;41.97;;